EDT,Max TemperatureF,Mean TemperatureF,Min TemperatureF,Max Dew PointF,MeanDew PointF,Min DewpointF,Max Humidity, Mean Humidity, Min Humidity, Max Sea Level PressureIn, Mean Sea Level PressureIn, Min Sea Level PressureIn, Max VisibilityMiles, Mean VisibilityMiles, Min VisibilityMiles, Max Wind SpeedMPH, Mean Wind SpeedMPH, Max Gust SpeedMPH,PrecipitationIn, CloudCover, Events, WindDirDegrees
2011-10-1,53,49,44,39,34,29,83,64,44,30.07,29.98,29.86,10,10,10,28,13,36,0.00,5,,344
2011-10-2,58,48,38,39,34,28,85,60,35,30.11,30.05,29.98,10,10,10,32,11,40,T,2,,347
2011-10-3,66,50,34,41,35,32,96,63,30,30.20,30.13,30.07,10,10,10,16,5,24,0.00,0,,343
2011-10-4,73,57,40,46,42,39,96,66,35,30.30,30.24,30.20,10,10,10,21,7,25,0.00,1,,339
2011-10-5,80,61,41,54,46,41,96,62,28,30.34,30.25,30.17,10,10,8,10,2,14,0.00,0,,333
2011-10-6,72,62,51,52,49,44,96,70,44,30.40,30.33,30.25,10,9,2,10,2,20,0.00,0,,157
2011-10-7,73,59,44,53,47,41,100,66,31,30.46,30.41,30.35,10,4,0,12,2,18,0.00,2,Fog,158
2011-10-8,71,55,39,48,42,37,100,67,33,30.51,30.47,30.38,10,6,0,13,2,18,0.00,1,Fog,171
2011-10-9,67,58,48,53,49,46,93,75,56,30.45,30.36,30.28,10,10,10,12,2,17,0.00,4,,110
2011-10-10,67,63,58,55,52,48,72,64,56,30.30,30.20,30.09,10,10,10,8,1,13,T,7,Rain,64
2011-10-11,60,57,54,57,54,52,100,90,80,30.13,30.04,29.96,10,8,2,8,2,14,0.92,8,Rain,345
2011-10-12,75,65,54,62,56,53,100,75,49,29.93,29.85,29.75,10,10,9,12,5,15,0.01,5,,360
2011-10-13,70,62,54,63,59,52,100,81,61,29.83,29.69,29.55,10,9,2,21,6,26,0.17,7,Rain-Thunderstorm,168
2011-10-14,71,60,48,54,41,33,93,60,26,29.87,29.74,29.62,10,10,10,25,7,38,T,2,,314
2011-10-15,71,57,42,42,35,21,96,57,17,30.10,29.98,29.88,10,10,10,21,6,25,0.00,0,,352
2011-10-16,81,60,38,46,39,34,85,53,21,30.19,30.08,29.99,10,10,10,15,3,24,0.00,0,,273
2011-10-17,81,63,45,54,48,39,92,62,32,30.02,29.93,29.84,10,10,10,16,4,25,0.00,0,,197
2011-10-18,74,60,45,61,52,44,100,68,36,29.91,29.81,29.67,10,8,0,12,2,12,0.25,4,Fog-Rain,175
2011-10-19,67,54,41,61,52,34,100,83,65,29.67,29.46,29.28,10,7,1,29,7,37,0.79,7,Rain,181
2011-10-20,56,47,38,36,34,29,79,65,50,29.98,29.76,29.55,10,10,10,16,8,25,0.00,3,,318
2011-10-21,58,49,39,37,34,33,85,63,40,30.13,30.06,29.99,10,10,10,18,9,24,0.00,1,,340
2011-10-22,64,48,31,38,34,30,96,64,32,30.19,30.14,30.06,10,8,1,12,3,14,0.00,0,,333
2011-10-23,67,50,32,45,38,32,100,65,29,30.17,30.12,30.04,10,9,0,12,1,26,0.00,1,Fog,120
2011-10-24,70,58,46,46,41,37,93,62,31,30.19,30.12,30.07,10,10,10,16,5,24,0.01,2,,349
2011-10-25,74,57,39,45,40,30,96,60,23,30.28,30.20,30.16,10,10,10,12,3,17,0.00,0,,135
2011-10-26,74,57,40,46,43,39,96,64,31,30.15,30.04,29.94,10,10,10,14,4,21,0.00,0,,178
2011-10-27,74,57,40,54,47,40,92,67,41,29.94,29.89,29.81,10,10,9,22,6,29,0.00,3,,341
2011-10-28,52,46,39,47,43,37,100,92,83,30.06,30.01,29.93,10,8,3,17,5,21,0.21,8,Rain,140
2011-10-29,49,42,34,39,34,27,93,68,42,30.16,30.01,29.94,10,10,5,31,13,41,0.03,5,Rain,341
2011-10-30,56,42,27,34,27,19,100,63,26,30.32,30.26,30.18,10,10,8,13,2,17,0.00,0,,150
2011-10-31,55,43,30,35,31,28,92,67,41,30.29,30.24,30.16,10,10,10,8,1,22,0.00,1,,162